Time;durP1;ratioP1;P1;durP2;ratioP2;P2;SDS_P1;SDS_P2;PMS_P1;PMS_P2;Temp;Humidity;BMP_temperature;BMP_pressure;BME280_temperature;BME280_humidity;BME280_pressure;Samples;Min_cycle;Max_cycle;Signal;HPM_P1;HPM_P2
2022/05/17 00:00:21;;;;;;;40.95;30.05;;;;;;;15.21;99.75;101802.69;2071077;28;43392;-69
2022/05/17 00:01:23;;;;;;;39.78;28.20;;;;;;;15.22;99.74;101800.88;2071367;28;20797;-69
2022/05/17 00:02:25;;;;;;;44.92;30.42;;;;;;;15.21;99.53;101797.28;2070368;28;44905;-69
2022/05/17 00:03:27;;;;;;;48.55;32.90;;;;;;;15.20;99.70;101800.94;2070259;28;44856;-69
2022/05/17 00:04:29;;;;;;;54.92;33.78;;;;;;;15.20;100.00;101803.63;2071257;28;38760;-69
2022/05/17 00:05:33;;;;;;;40.90;29.13;;;;;;;15.19;100.00;101801.84;2063087;28;21082;-68
2022/05/17 00:06:35;;;;;;;48.08;33.50;;;;;;;15.21;99.91;101802.69;2062664;28;44615;-69
2022/05/17 00:07:38;;;;;;;42.38;28.83;;;;;;;15.21;99.82;101802.69;2071672;28;21001;-69
2022/05/17 00:08:41;;;;;;;43.42;30.80;;;;;;;15.21;99.66;101799.97;2063321;28;20023;-69
2022/05/17 00:09:43;;;;;;;41.40;30.30;;;;;;;15.21;100.00;101796.41;2062216;28;44025;-69
2022/05/17 00:10:46;;;;;;;48.17;30.55;;;;;;;15.20;99.86;101798.22;2066606;28;42838;-69
2022/05/17 00:11:48;;;;;;;39.55;28.40;;;;;;;15.21;99.82;101805.38;2061298;28;42941;-69
2022/05/17 00:12:53;;;;;;;35.63;27.27;;;;;;;15.21;99.64;101799.97;2054179;28;36505;-69
2022/05/17 00:13:56;;;;;;;45.13;29.15;;;;;;;15.20;99.75;101797.31;2054289;28;44437;-69
2022/05/17 00:15:00;;;;;;;39.95;28.00;;;;;;;15.21;99.60;101804.50;2063034;28;46405;-68
2022/05/17 00:16:05;;;;;;;40.10;29.23;;;;;;;15.20;99.85;101806.31;2071035;28;44514;-69
2022/05/17 00:17:09;;;;;;;41.20;28.05;;;;;;;15.19;99.54;101807.22;2062948;28;20133;-69
2022/05/17 00:18:13;;;;;;;41.33;27.70;;;;;;;15.21;99.57;101809.91;2063236;28;46693;-69
2022/05/17 00:19:16;;;;;;;43.83;29.92;;;;;;;15.21;99.60;101809.91;2070652;28;44860;-69
2022/05/17 00:20:21;;;;;;;43.08;30.02;;;;;;;15.21;99.68;101801.81;2063400;28;20923;-69
2022/05/17 00:21:23;;;;;;;43.25;31.77;;;;;;;15.21;99.62;101802.69;2054855;28;44671;-69
2022/05/17 00:22:25;;;;;;;45.60;30.17;;;;;;;15.21;99.76;101805.38;2054166;28;44890;-69
2022/05/17 00:23:29;;;;;;;37.25;28.45;;;;;;;15.22;99.72;101807.16;2062368;28;44800;-69
2022/05/17 00:24:32;;;;;;;41.58;28.48;;;;;;;15.20;99.92;101809.03;2071822;28;20034;-69
2022/05/17 00:25:34;;;;;;;39.60;27.67;;;;;;;15.21;99.49;101808.06;2070680;28;45193;-69
2022/05/17 00:26:39;;;;;;;43.03;29.08;;;;;;;15.21;99.64;101810.78;2072019;28;20978;-69
2022/05/17 00:27:41;;;;;;;43.10;29.25;;;;;;;15.20;99.67;101806.31;2070607;28;43962;-69
2022/05/17 00:28:42;;;;;;;44.70;30.05;;;;;;;15.18;99.48;101802.78;2070738;28;45425;-68
2022/05/17 00:29:44;;;;;;;41.50;27.70;;;;;;;15.19;99.31;101807.22;2070940;28;43402;-70
2022/05/17 00:30:48;;;;;;;42.80;29.30;;;;;;;15.18;99.61;101800.09;2062142;28;43953;-69
2022/05/17 00:31:49;;;;;;;38.10;28.83;;;;;;;15.18;99.79;101800.09;2062435;28;38041;-69
2022/05/17 00:32:53;;;;;;;40.00;28.10;;;;;;;15.16;99.41;101807.31;2062670;28;43964;-69
2022/05/17 00:33:57;;;;;;;43.13;28.42;;;;;;;15.16;99.26;101807.31;2071347;28;20109;-69
2022/05/17 00:34:59;;;;;;;39.15;26.30;;;;;;;15.15;99.35;101810.97;2070556;28;43062;-68
2022/05/17 00:36:02;;;;;;;46.20;29.63;;;;;;;15.16;99.62;101806.44;2071030;28;44076;-69
2022/05/17 00:37:08;;;;;;;34.67;26.50;;;;;;;15.13;99.25;101804.72;2063213;28;20898;-69
2022/05/17 00:38:10;;;;;;;34.90;25.95;;;;;;;15.14;99.20;101802.91;2063929;28;39784;-69
2022/05/17 00:39:11;;;;;;;42.25;28.60;;;;;;;15.14;99.55;101797.50;2070680;28;45570;-69
2022/05/17 00:40:15;;;;;;;38.92;28.83;;;;;;;15.13;99.66;101795.72;2070600;28;43453;-68
2022/05/17 00:41:17;;;;;;;35.67;27.30;;;;;;;15.10;99.47;101799.41;2070566;28;45574;-69
2022/05/17 00:42:19;;;;;;;38.28;25.90;;;;;;;15.10;99.76;101801.22;2070896;28;44824;-69
2022/05/17 00:45:16;;;;;;;41.92;26.30;;;;;;;15.06;99.69;101795.91;2070485;28;21423;-68
2022/05/17 00:46:30;;;;;;;36.15;25.92;;;;;;;15.05;99.45;101799.53;2061758;28;44167;-68
2022/05/17 00:47:42;;;;;;;43.20;28.25;;;;;;;15.05;99.80;101798.66;2061834;28;36012;-68
2022/05/17 00:48:44;;;;;;;42.92;29.05;;;;;;;15.04;99.42;101795.06;2053412;28;46436;-67
2022/05/17 00:50:02;;;;;;;46.13;29.40;;;;;;;15.03;99.65;101797.81;2054873;28;42328;-66
2022/05/17 00:51:04;;;;;;;37.75;28.23;;;;;;;15.01;99.38;101802.38;2058230;28;45410;-69
2022/05/17 00:52:16;;;;;;;42.83;30.33;;;;;;;15.02;99.68;101801.41;2055976;28;33683;-69
2022/05/17 00:53:33;;;;;;;37.20;26.25;;;;;;;15.00;99.65;101801.50;2055532;28;45529;-69
2022/05/17 00:54:36;;;;;;;47.58;30.20;;;;;;;15.00;99.69;101795.19;2057483;28;46495;-68
2022/05/17 00:55:50;;;;;;;40.72;28.27;;;;;;;14.98;100.00;101792.53;2063850;28;42193;-69
2022/05/17 00:57:05;;;;;;;46.33;30.55;;;;;;;14.98;100.00;101799.75;2069662;28;44080;-69
2022/05/17 00:58:18;;;;;;;40.55;30.40;;;;;;;14.97;99.87;101792.59;2070793;28;27634;-68
2022/05/17 00:59:20;;;;;;;47.03;30.77;;;;;;;14.97;100.00;101806.09;2070740;28;20120;-69
2022/05/17 01:00:24;;;;;;;42.10;30.17;;;;;;;14.95;100.00;101799.81;2068497;28;45296;-66
2022/05/17 01:01:31;;;;;;;47.95;30.83;;;;;;;14.92;100.00;101802.63;2054138;28;43164;-66
2022/05/17 01:02:33;;;;;;;43.28;29.55;;;;;;;14.92;99.88;101800.81;2055299;28;45998;-68
2022/05/17 01:04:10;;;;;;;48.78;31.00;;;;;;;14.91;99.67;101798.13;2055851;28;20039;-69
2022/05/17 01:05:14;;;;;;;45.90;31.35;;;;;;;14.91;99.80;101793.63;2059109;28;31142;-69
2022/05/17 01:06:17;;;;;;;44.30;31.52;;;;;;;14.89;100.00;101799.09;2066331;28;44240;-67
2022/05/17 01:07:25;;;;;;;47.47;32.30;;;;;;;14.90;100.00;101802.66;2070882;28;27029;-69
2022/05/17 01:08:28;;;;;;;45.13;29.08;;;;;;;14.87;100.00;101795.53;2068934;28;45357;-69
2022/05/17 01:09:30;;;;;;;46.38;30.35;;;;;;;14.84;99.95;101795.63;2055010;28;43869;-67
2022/05/17 01:10:32;;;;;;;39.20;28.13;;;;;;;14.83;99.89;101804.63;2062209;28;43030;-69
2022/05/17 01:11:33;;;;;;;45.05;29.15;;;;;;;14.81;99.73;101795.69;2070205;28;47143;-69
2022/05/17 01:12:39;;;;;;;40.33;27.48;;;;;;;14.79;100.00;101799.38;2070849;28;44681;-67
2022/05/17 01:15:06;;;;;;;45.03;31.48;;;;;;;14.77;100.00;101809.28;2066840;28;46939;-67
2022/05/17 01:16:08;;;;;;;43.45;32.55;;;;;;;14.75;100.00;101803.97;2056557;28;43014;-69
2022/05/17 01:17:10;;;;;;;42.20;29.02;;;;;;;14.72;100.00;101806.72;2054703;28;43991;-69
2022/05/17 01:18:12;;;;;;;44.00;29.00;;;;;;;14.69;100.00;101801.41;2062844;28;20039;-68
2022/05/17 01:19:15;;;;;;;46.85;31.73;;;;;;;14.70;100.00;101803.19;2070278;28;45276;-69
2022/05/17 01:20:17;;;;;;;45.38;31.13;;;;;;;14.71;100.00;101807.63;2069203;28;44967;-69
2022/05/17 01:21:20;;;;;;;45.40;30.25;;;;;;;14.68;100.00;101805.06;2062095;28;42419;-70
2022/05/17 01:22:22;;;;;;;49.90;33.03;;;;;;;14.68;100.00;101805.94;2070429;28;44289;-69
2022/05/17 01:23:23;;;;;;;47.83;31.83;;;;;;;14.67;100.00;101800.56;2070838;28;44893;-69
2022/05/17 01:24:25;;;;;;;46.60;31.05;;;;;;;14.67;100.00;101798.75;2071416;28;45217;-69
2022/05/17 01:25:28;;;;;;;43.88;30.05;;;;;;;14.65;100.00;101806.00;2063005;28;46529;-69
2022/05/17 01:26:35;;;;;;;44.97;29.52;;;;;;;14.66;100.00;101806.88;2063446;28;43179;-69
2022/05/17 01:27:54;;;;;;;44.70;30.45;;;;;;;14.66;100.00;101807.78;2064194;28;43808;-69
2022/05/17 01:28:56;;;;;;;40.88;29.50;;;;;;;14.67;100.00;101800.56;2071099;28;44811;-69
2022/05/17 01:29:57;;;;;;;47.47;30.92;;;;;;;14.67;100.00;101805.97;2071635;28;43188;-69
2022/05/17 01:31:04;;;;;;;51.88;32.05;;;;;;;14.69;100.00;101798.72;2072078;28;45833;-69
2022/05/17 01:32:09;;;;;;;42.78;31.15;;;;;;;14.70;100.00;101803.19;2071926;28;44960;-67
2022/05/17 01:33:19;;;;;;;39.90;28.70;;;;;;;14.69;100.00;101796.91;2071926;28;45794;-69
2022/05/17 01:34:21;;;;;;;54.65;32.35;;;;;;;14.71;100.00;101802.25;2072184;28;20150;-67
2022/05/17 01:35:23;;;;;;;44.17;29.67;;;;;;;14.71;100.00;101804.94;2072156;28;20038;-69
2022/05/17 01:36:24;;;;;;;48.42;31.30;;;;;;;14.71;100.00;101804.94;2071895;28;43928;-69
2022/05/17 01:37:26;;;;;;;38.47;26.52;;;;;;;14.72;100.00;101803.16;2072208;28;45722;-67
2022/05/17 01:38:28;;;;;;;47.80;33.42;;;;;;;14.73;100.00;101800.41;2072117;28;46117;-67
2022/05/17 01:39:32;;;;;;;50.75;33.28;;;;;;;14.72;100.00;101798.66;2072331;28;34929;-69
2022/05/17 01:40:35;;;;;;;47.15;30.95;;;;;;;14.72;100.00;101790.56;2071444;28;43154;-69
2022/05/17 01:41:37;;;;;;;46.97;30.55;;;;;;;14.70;100.00;101793.28;2070851;28;44428;-69
2022/05/17 01:42:38;;;;;;;45.38;29.05;;;;;;;14.70;100.00;101795.13;2071541;28;46059;-69
2022/05/17 01:43:40;;;;;;;38.75;27.30;;;;;;;14.67;100.00;101798.75;2062627;28;43159;-69
2022/05/17 01:44:43;;;;;;;42.83;27.40;;;;;;;14.64;100.00;101792.56;2063535;28;30147;-68
2022/05/17 01:45:45;;;;;;;36.72;24.85;;;;;;;14.61;100.00;101795.34;2071706;28;42277;-69
2022/05/17 01:46:47;;;;;;;43.60;29.30;;;;;;;14.59;100.00;101799.88;2072052;28;44280;-68
2022/05/17 01:47:48;;;;;;;42.30;27.80;;;;;;;14.54;100.00;101796.41;2071326;28;43524;-69
2022/05/17 01:48:51;;;;;;;40.28;26.85;;;;;;;14.51;100.00;101797.34;2071774;28;43134;-69
2022/05/17 01:49:53;;;;;;;45.47;31.05;;;;;;;14.48;100.00;101800.13;2055115;28;44214;-69
2022/05/17 01:50:55;;;;;;;39.75;29.27;;;;;;;14.44;100.00;101791.22;2063281;28;44324;-69
2022/05/17 01:51:57;;;;;;;43.00;28.65;;;;;;;14.41;100.00;101799.41;2072125;28;31076;-69
2022/05/17 01:53:01;;;;;;;41.55;30.00;;;;;;;14.39;100.00;101801.25;2072877;28;20053;-67
2022/05/17 01:54:03;;;;;;;44.50;30.88;;;;;;;14.37;100.00;101797.69;2071517;28;44767;-67
2022/05/17 01:55:05;;;;;;;40.65;28.23;;;;;;;14.34;100.00;101797.78;2071908;28;40402;-67
2022/05/17 01:56:09;;;;;;;44.67;28.85;;;;;;;14.31;100.00;101797.84;2071424;28;44669;-67
2022/05/17 01:57:13;;;;;;;36.22;27.10;;;;;;;14.26;100.00;101795.25;2071774;28;42835;-67
2022/05/17 01:58:15;;;;;;;37.00;26.60;;;;;;;14.23;100.00;101798.06;2071959;28;46445;-67
2022/05/17 01:59:17;;;;;;;41.22;28.70;;;;;;;14.21;100.00;101799.00;2071014;28;43379;-67
2022/05/17 02:00:23;;;;;;;47.33;32.83;;;;;;;14.18;100.00;101799.09;2071209;28;44356;-67
2022/05/17 02:01:25;;;;;;;37.53;27.55;;;;;;;14.12;100.00;101795.63;2072330;28;20046;-67
2022/05/17 02:02:27;;;;;;;43.33;33.03;;;;;;;14.15;100.00;101802.72;2071422;28;45806;-67
2022/05/17 02:03:29;;;;;;;40.55;27.48;;;;;;;14.11;100.00;101801.03;2071679;28;46731;-67
2022/05/17 02:04:31;;;;;;;51.17;33.20;;;;;;;14.09;100.00;101795.69;2071909;28;35197;-67
2022/05/17 02:05:34;;;;;;;41.47;28.77;;;;;;;14.06;100.00;101792.19;2072847;28;20830;-67
2022/05/17 02:06:35;;;;;;;50.28;30.63;;;;;;;14.05;100.00;101794.00;2071249;28;43747;-69
2022/05/17 02:07:38;;;;;;;43.75;29.83;;;;;;;14.00;100.00;101789.63;2062683;28;43834;-67
2022/05/17 02:08:40;;;;;;;45.17;29.65;;;;;;;13.99;100.00;101788.75;2063194;28;44785;-67
2022/05/17 02:09:41;;;;;;;49.55;30.02;;;;;;;13.94;100.00;101782.56;2070739;28;43255;-67
2022/05/17 02:10:46;;;;;;;43.90;30.77;;;;;;;13.94;100.00;101794.25;2071214;28;44306;-69
2022/05/17 02:11:48;;;;;;;50.30;32.13;;;;;;;13.92;100.00;101793.38;2063335;28;20856;-67
2022/05/17 02:12:49;;;;;;;38.42;28.13;;;;;;;13.89;100.00;101792.56;2055248;28;34258;-67
2022/05/17 02:13:54;;;;;;;46.55;31.48;;;;;;;13.84;100.00;101794.50;2062539;28;45451;-67
2022/05/17 02:14:55;;;;;;;45.20;29.13;;;;;;;13.81;100.00;101800.81;2071303;28;44323;-67
2022/05/17 02:15:57;;;;;;;46.25;30.10;;;;;;;13.79;100.00;101801.78;2071217;28;45474;-69
2022/05/17 02:17:00;;;;;;;40.67;26.10;;;;;;;13.78;100.00;101797.31;2071731;28;44239;-67
2022/05/17 02:18:06;;;;;;;52.55;34.88;;;;;;;13.78;100.00;101800.88;2072317;28;20037;-67
2022/05/17 02:19:07;;;;;;;49.25;33.38;;;;;;;13.78;100.00;101802.69;2070688;28;43871;-70
2022/05/17 02:20:12;;;;;;;46.55;30.83;;;;;;;13.75;100.00;101800.97;2071101;28;44490;-67
2022/05/17 02:21:14;;;;;;;47.75;34.65;;;;;;;13.78;100.00;101802.69;2071630;28;43717;-67
2022/05/17 02:22:15;;;;;;;54.05;36.22;;;;;;;13.80;100.00;101806.22;2071855;28;44522;-69
2022/05/17 02:23:19;;;;;;;49.65;33.03;;;;;;;13.82;100.00;101807.06;2072754;28;20088;-66
2022/05/17 02:24:22;;;;;;;55.65;35.03;;;;;;;13.81;100.00;101805.31;2071261;28;44570;-69
2022/05/17 02:25:23;;;;;;;50.33;32.92;;;;;;;13.81;100.00;101805.31;2071236;28;46202;-69
2022/05/17 02:26:27;;;;;;;47.80;32.50;;;;;;;13.83;100.00;101811.56;2072144;28;20442;-69
2022/05/17 02:27:29;;;;;;;49.92;32.40;;;;;;;13.86;100.00;101814.19;2071365;28;46190;-66
2022/05/17 02:28:31;;;;;;;47.03;32.95;;;;;;;13.85;100.00;101809.72;2071775;28;43684;-69
2022/05/17 02:29:32;;;;;;;51.05;32.80;;;;;;;13.86;100.00;101812.38;2071796;28;44367;-69
2022/05/17 02:30:35;;;;;;;49.70;33.65;;;;;;;13.92;100.00;101816.72;2062929;28;44847;-69
2022/05/17 02:31:37;;;;;;;59.35;37.90;;;;;;;13.91;100.00;101813.16;2062804;28;44040;-66
2022/05/17 02:32:39;;;;;;;72.20;40.33;;;;;;;13.99;100.00;101812.09;2071343;28;45905;-67
2022/05/17 02:33:41;;;;;;;60.42;37.95;;;;;;;13.97;100.00;101817.50;2072188;28;42403;-68
2022/05/17 02:34:45;;;;;;;58.88;34.80;;;;;;;13.99;100.00;101812.97;2071647;28;41002;-69
2022/05/17 02:35:46;;;;;;;51.13;33.75;;;;;;;13.98;100.00;101813.00;2070707;28;46037;-67
2022/05/17 02:36:48;;;;;;;54.15;35.67;;;;;;;13.99;100.00;101815.66;2070868;28;43177;-66
2022/05/17 02:37:50;;;;;;;55.55;38.05;;;;;;;14.01;100.00;101815.63;2071765;28;42990;-67
2022/05/17 02:38:52;;;;;;;55.80;35.58;;;;;;;14.01;100.00;101819.19;2071744;28;45607;-66
2022/05/17 02:39:53;;;;;;;49.70;34.83;;;;;;;14.01;100.00;101819.19;2071236;28;45599;-69
2022/05/17 02:40:55;;;;;;;60.63;37.83;;;;;;;14.02;100.00;101817.41;2071487;28;46176;-69
2022/05/17 02:41:57;;;;;;;54.05;36.25;;;;;;;14.02;100.00;101815.59;2071450;28;44686;-66
2022/05/17 02:42:59;;;;;;;54.22;34.97;;;;;;;14.02;100.00;101812.91;2071489;28;45585;-65
2022/05/17 02:44:01;;;;;;;56.08;38.17;;;;;;;14.04;100.00;101820.97;2071450;28;45460;-67
2022/05/17 02:45:04;;;;;;;51.08;35.67;;;;;;;14.03;100.00;101816.47;2071339;28;40108;-66
2022/05/17 02:46:07;;;;;;;54.53;35.10;;;;;;;14.00;100.00;101817.44;2071827;28;20832;-67
2022/05/17 02:47:10;;;;;;;49.97;33.40;;;;;;;14.00;100.00;101816.53;2070066;28;45008;-69
2022/05/17 02:48:12;;;;;;;53.63;36.88;;;;;;;13.99;100.00;101821.06;2055118;28;40024;-69
2022/05/17 02:49:13;;;;;;;55.30;37.00;;;;;;;14.00;100.00;101820.16;2062748;28;44699;-69
2022/05/17 02:50:15;;;;;;;52.45;34.35;;;;;;;13.96;100.00;101818.41;2071498;28;43849;-69
2022/05/17 02:51:21;;;;;;;49.78;35.17;;;;;;;13.92;100.00;101816.72;2071280;28;46394;-67
2022/05/17 02:52:23;;;;;;;49.40;32.20;;;;;;;13.88;100.00;101812.34;2071575;28;42067;-67
2022/05/17 02:53:24;;;;;;;52.92;33.78;;;;;;;13.83;100.00;101815.13;2071671;28;44389;-66
2022/05/17 02:54:26;;;;;;;45.03;31.15;;;;;;;13.80;100.00;101815.22;2071615;28;45798;-66
2022/05/17 02:55:31;;;;;;;43.35;30.55;;;;;;;13.77;100.00;101817.97;2071876;28;45416;-65
2022/05/17 02:56:33;;;;;;;54.15;36.30;;;;;;;13.76;100.00;101813.50;2071181;28;42327;-66
2022/05/17 02:57:36;;;;;;;51.45;33.47;;;;;;;13.72;100.00;101811.78;2072442;28;20046;-69
2022/05/17 02:58:37;;;;;;;51.63;33.10;;;;;;;13.67;100.00;101819.94;2071245;28;44323;-69
2022/05/17 02:59:39;;;;;;;47.38;33.78;;;;;;;13.64;100.00;101822.72;2071225;28;44752;-69
2022/05/17 03:00:43;;;;;;;50.67;34.42;;;;;;;13.63;100.00;101823.66;2072534;28;20041;-67
2022/05/17 03:01:46;;;;;;;53.72;36.03;;;;;;;13.62;100.00;101815.59;2071309;28;45621;-66
2022/05/17 03:02:48;;;;;;;46.70;32.03;;;;;;;13.60;100.00;101823.69;2071104;28;34301;-66
2022/05/17 03:03:49;;;;;;;53.83;34.75;;;;;;;13.60;100.00;101822.81;2070566;28;45199;-67
2022/05/17 03:04:52;;;;;;;41.60;30.55;;;;;;;13.60;100.00;101828.19;2072278;28;20314;-66
2022/05/17 03:05:54;;;;;;;51.05;33.88;;;;;;;13.56;100.00;101830.94;2071210;28;42997;-67
2022/05/17 03:06:58;;;;;;;50.58;32.00;;;;;;;13.56;100.00;101832.75;2071063;28;20189;-65
2022/05/17 03:07:59;;;;;;;42.97;31.48;;;;;;;13.55;100.00;101833.69;2071366;28;33375;-66
2022/05/17 03:09:01;;;;;;;50.17;34.10;;;;;;;13.52;100.00;101826.56;2062706;28;43862;-67
2022/05/17 03:10:03;;;;;;;57.15;37.35;;;;;;;13.55;100.00;101825.63;2062101;28;46491;-67
2022/05/17 03:11:05;;;;;;;58.95;36.88;;;;;;;13.54;100.00;101824.72;2071129;28;44676;-67
2022/05/17 03:12:08;;;;;;;46.17;30.67;;;;;;;13.51;100.00;101829.28;2071156;28;45177;-67
2022/05/17 03:13:11;;;;;;;44.55;29.33;;;;;;;13.48;100.00;101827.56;2062924;28;39933;-67
2022/05/17 03:14:18;;;;;;;40.75;30.70;;;;;;;13.46;100.00;101823.09;2064107;28;20074;-67
2022/05/17 03:15:21;;;;;;;44.15;29.65;;;;;;;13.45;100.00;101829.41;2071602;28;35725;-67
2022/05/17 03:16:31;;;;;;;42.78;29.92;;;;;;;13.41;100.00;101827.72;2070784;28;43722;-67
2022/05/17 03:17:33;;;;;;;50.35;34.72;;;;;;;13.39;100.00;101835.81;2069837;28;45732;-67
2022/05/17 03:18:35;;;;;;;45.75;31.63;;;;;;;13.36;100.00;101834.06;2063339;28;35536;-67
2022/05/17 03:19:37;;;;;;;45.95;31.02;;;;;;;13.40;100.00;101837.56;2071303;28;43674;-67
2022/05/17 03:20:38;;;;;;;50.45;34.95;;;;;;;13.37;100.00;101829.59;2071145;28;44349;-67
2022/05/17 03:21:47;;;;;;;46.55;31.70;;;;;;;13.31;100.00;101833.25;2071618;28;41279;-67
2022/05/17 03:22:49;;;;;;;45.80;32.05;;;;;;;13.28;100.00;101838.69;2070467;28;45347;-67
2022/05/17 03:23:51;;;;;;;46.38;33.30;;;;;;;13.27;100.00;101841.41;2070991;28;41313;-67
2022/05/17 03:24:53;;;;;;;46.88;32.60;;;;;;;13.22;100.00;101837.91;2071296;28;42249;-67
2022/05/17 03:26:15;;;;;;;42.50;29.88;;;;;;;13.19;100.00;101844.25;2071809;28;21049;-67
2022/05/17 03:27:19;;;;;;;48.63;33.60;;;;;;;13.16;100.00;101834.41;2071004;28;45361;-67
2022/05/17 03:28:21;;;;;;;49.90;34.22;;;;;;;13.16;100.00;101838.91;2070807;28;44178;-67
2022/05/17 03:29:23;;;;;;;48.75;32.38;;;;;;;13.15;100.00;101838.03;2070813;28;27103;-67
2022/05/17 03:30:25;;;;;;;51.28;35.13;;;;;;;13.14;100.00;101835.38;2071085;28;44419;-67
2022/05/17 03:31:29;;;;;;;44.42;30.55;;;;;;;13.10;100.00;101828.25;2071442;28;20174;-67
2022/05/17 03:32:31;;;;;;;57.47;35.63;;;;;;;13.09;100.00;101831.88;2070455;28;44926;-67
2022/05/17 03:33:32;;;;;;;38.78;27.38;;;;;;;13.07;100.00;101839.09;2069877;28;45488;-67
2022/05/17 03:34:34;;;;;;;43.42;30.13;;;;;;;13.03;100.00;101840.97;2070974;28;35565;-67
2022/05/17 03:35:38;;;;;;;38.70;27.45;;;;;;;13.00;100.00;101838.31;2072026;28;20938;-67
2022/05/17 03:36:40;;;;;;;43.83;28.48;;;;;;;12.99;100.00;101841.91;2071592;28;45256;-67
2022/05/17 03:37:41;;;;;;;48.30;32.08;;;;;;;12.95;100.00;101835.72;2070979;28;45825;-67
2022/05/17 03:38:43;;;;;;;50.28;34.33;;;;;;;12.93;100.00;101832.16;2071518;28;33616;-67
2022/05/17 03:39:46;;;;;;;40.83;28.80;;;;;;;12.93;100.00;101839.34;2071407;28;20047;-67
2022/05/17 03:40:47;;;;;;;48.30;32.95;;;;;;;12.95;100.00;101842.91;2071189;28;43763;-67
2022/05/17 03:41:49;;;;;;;52.05;32.72;;;;;;;12.91;100.00;101836.69;2070793;28;45614;-66
2022/05/17 03:42:50;;;;;;;40.50;29.02;;;;;;;12.88;100.00;101842.09;2062161;28;46138;-67
2022/05/17 03:43:52;;;;;;;47.58;32.35;;;;;;;12.87;100.00;101848.41;2062399;28;44583;-66
2022/05/17 03:44:54;;;;;;;52.53;35.83;;;;;;;12.88;100.00;101844.78;2070953;28;44050;-67
2022/05/17 03:45:57;;;;;;;59.90;38.60;;;;;;;12.95;100.00;101849.16;2070862;28;44576;-67
2022/05/17 03:46:59;;;;;;;58.33;36.03;;;;;;;12.91;100.00;101842.06;2070607;28;45846;-67
2022/05/17 03:48:02;;;;;;;59.40;36.58;;;;;;;12.92;100.00;101846.53;2071729;28;20034;-67
2022/05/17 03:49:04;;;;;;;53.58;36.20;;;;;;;12.90;100.00;101845.69;2070562;28;44862;-67
2022/05/17 03:50:12;;;;;;;51.08;35.20;;;;;;;12.90;100.00;101848.38;2070700;28;44360;-67
2022/05/17 03:51:19;;;;;;;55.88;32.78;;;;;;;12.91;100.00;101851.94;2071893;28;20116;-66
2022/05/17 03:52:29;;;;;;;49.92;33.10;;;;;;;12.90;100.00;101842.09;2069969;28;43947;-66
2022/05/17 03:53:32;;;;;;;43.13;29.70;;;;;;;12.90;100.00;101844.78;2071105;28;20043;-67
2022/05/17 03:54:37;;;;;;;48.53;31.40;;;;;;;12.86;100.00;101846.63;2069834;28;45527;-66
2022/05/17 03:55:39;;;;;;;43.58;31.35;;;;;;;12.83;100.00;101844.03;2069541;28;45465;-67
2022/05/17 03:56:40;;;;;;;53.28;35.78;;;;;;;12.84;100.00;101847.59;2063614;28;20046;-66
2022/05/17 03:57:42;;;;;;;55.28;34.20;;;;;;;12.82;100.00;101850.28;2071197;28;45215;-66
2022/05/17 03:58:44;;;;;;;51.83;33.22;;;;;;;12.81;100.00;101848.50;2071067;28;44939;-67
2022/05/17 03:59:46;;;;;;;47.35;31.05;;;;;;;12.82;100.00;101852.97;2070824;28;39330;-67
2022/05/17 04:00:47;;;;;;;46.30;31.45;;;;;;;12.80;100.00;101844.06;2070196;28;44039;-67
2022/05/17 04:01:49;;;;;;;46.90;32.35;;;;;;;12.79;100.00;101844.97;2071100;28;43503;-66
2022/05/17 04:02:51;;;;;;;42.63;29.55;;;;;;;12.77;100.00;101846.78;2071625;28;43830;-67
2022/05/17 04:03:53;;;;;;;41.30;29.45;;;;;;;12.75;100.00;101843.25;2071549;28;45205;-67
2022/05/17 04:04:57;;;;;;;45.33;31.95;;;;;;;12.76;100.00;101847.72;2070964;28;44901;-67
2022/05/17 04:05:59;;;;;;;55.80;35.15;;;;;;;12.78;100.00;101848.59;2071288;28;43040;-67
2022/05/17 04:07:01;;;;;;;58.20;36.72;;;;;;;12.81;100.00;101851.19;2070745;28;45991;-67
2022/05/17 04:08:04;;;;;;;50.70;35.13;;;;;;;12.83;100.00;101856.53;2071847;28;20054;-67
2022/05/17 04:09:05;;;;;;;50.47;32.45;;;;;;;12.86;100.00;101851.13;2070744;28;44770;-67
2022/05/17 04:10:14;;;;;;;46.20;30.30;;;;;;;12.88;100.00;101847.47;2070096;28;44836;-67
2022/05/17 04:11:17;;;;;;;44.90;31.40;;;;;;;12.93;100.00;101853.66;2069801;28;45367;-66
2022/05/17 04:12:19;;;;;;;45.78;31.75;;;;;;;13.01;100.00;101853.56;2071102;28;43844;-67
2022/05/17 04:13:21;;;;;;;42.47;27.98;;;;;;;13.07;100.00;101849.84;2070749;28;44605;-67
2022/05/17 04:14:23;;;;;;;42.67;29.85;;;;;;;13.14;100.00;101852.38;2070050;28;42990;-66
2022/05/17 04:15:27;;;;;;;46.53;30.15;;;;;;;13.23;100.00;101856.72;2053830;28;43007;-67
2022/05/17 04:16:33;;;;;;;50.45;32.97;;;;;;;13.37;100.00;101853.78;2062537;28;42907;-67
2022/05/17 04:17:35;;;;;;;50.08;33.72;;;;;;;13.50;100.00;101857.13;2055154;28;44336;-66
2022/05/17 04:18:37;;;;;;;46.00;30.08;;;;;;;13.66;100.00;101855.00;2063350;28;36575;-67
2022/05/17 04:19:39;;;;;;;52.75;32.78;;;;;;;13.82;100.00;101852.84;2070231;28;45456;-66
2022/05/17 04:20:41;;;;;;;43.35;30.55;;;;;;;14.03;100.00;101855.09;2070734;28;43489;-66
2022/05/17 04:21:44;;;;;;;50.90;31.70;;;;;;;14.31;100.00;101846.34;2071951;28;20108;-66
2022/05/17 04:22:49;;;;;;;48.70;31.52;;;;;;;14.64;100.00;101847.38;2071039;28;46045;-67
2022/05/17 04:23:51;;;;;;;42.13;30.17;;;;;;;14.99;100.00;101852.75;2071043;28;43813;-66
2022/05/17 04:24:57;;;;;;;39.65;29.98;;;;;;;15.37;100.00;101854.41;2071300;28;45390;-67
2022/05/17 04:26:00;;;;;;;39.78;27.10;;;;;;;15.77;99.93;101857.78;2071178;28;20042;-66
2022/05/17 04:27:02;;;;;;;32.35;25.73;;;;;;;16.01;97.21;101850.75;2070810;28;43306;-66
2022/05/17 04:28:04;;;;;;;33.67;24.85;;;;;;;16.38;95.92;101847.78;2070613;28;44301;-67
2022/05/17 04:29:07;;;;;;;27.55;21.70;;;;;;;16.71;93.91;101847.56;2071147;28;45676;-67
2022/05/17 04:30:10;;;;;;;28.20;21.20;;;;;;;17.14;92.61;101851.50;2070876;28;33145;-67
2022/05/17 04:31:11;;;;;;;27.05;20.55;;;;;;;17.31;88.17;101855.44;2071007;28;20912;-67
2022/05/17 04:32:13;;;;;;;24.75;18.73;;;;;;;17.57;87.00;101851.78;2069856;28;44747;-67
2022/05/17 04:33:15;;;;;;;24.60;18.77;;;;;;;17.83;85.72;101849.88;2070918;28;45539;-67
2022/05/17 04:34:18;;;;;;;22.58;17.90;;;;;;;18.16;84.14;101847.72;2071636;28;20038;-67
2022/05/17 04:35:20;;;;;;;23.30;18.63;;;;;;;18.20;82.57;101843.94;2072163;28;20868;-66
2022/05/17 04:36:23;;;;;;;20.13;16.92;;;;;;;18.11;82.28;101850.59;2070578;28;46276;-67
2022/05/17 04:37:25;;;;;;;24.83;16.48;;;;;;;17.93;82.26;101848.63;2071024;28;38996;-66
2022/05/17 04:38:27;;;;;;;19.63;16.40;;;;;;;17.82;83.50;101851.72;2070830;28;45393;-66
2022/05/17 04:39:31;;;;;;;22.85;16.98;;;;;;;17.56;82.58;101855.41;2071875;28;20050;-67
2022/05/17 04:40:34;;;;;;;21.13;16.80;;;;;;;17.66;83.27;101855.97;2062416;28;27176;-68
2022/05/17 04:41:37;;;;;;;19.25;16.70;;;;;;;17.81;82.59;101846.34;2054722;28;46015;-67
2022/05/17 04:42:41;;;;;;;23.23;17.20;;;;;;;17.95;81.96;101851.28;2054476;28;37854;-67
2022/05/17 04:43:45;;;;;;;19.92;16.55;;;;;;;18.07;80.21;101858.91;2062323;28;45523;-68
2022/05/17 04:44:48;;;;;;;19.13;16.35;;;;;;;18.41;80.50;101857.53;2071485;28;20045;-67
2022/05/17 04:45:51;;;;;;;23.45;17.10;;;;;;;18.58;79.50;101857.72;2063066;28;20815;-67
2022/05/17 04:46:53;;;;;;;20.92;16.75;;;;;;;18.94;78.31;101851.72;2062465;28;32965;-67
2022/05/17 04:47:55;;;;;;;18.33;15.70;;;;;;;19.32;77.30;101856.41;2070487;28;45307;-66
2022/05/17 04:48:57;;;;;;;19.30;15.40;;;;;;;19.70;75.96;101867.34;2070508;28;44986;-67